createdAt,value
2018-11-25T00:00:42.547Z,34.48
2018-11-25T00:01:30.545Z,34.90
2018-11-25T00:02:18.659Z,33.53
2018-11-25T00:03:06.641Z,32.75
2018-11-25T00:03:54.250Z,33.25
2018-11-25T00:04:41.915Z,32.98
2018-11-25T00:05:29.585Z,34.50
2018-11-25T00:06:17.725Z,33.53
2018-11-25T00:07:06.289Z,32.20
2018-11-25T00:07:54.402Z,32.38
2018-11-25T00:08:42.046Z,34.65
2018-11-25T00:09:29.750Z,34.43
2018-11-25T00:10:17.261Z,32.90
2018-11-25T00:11:05.017Z,35.45
2018-11-25T00:11:52.617Z,35.33
2018-11-25T00:12:40.357Z,34.30
2018-11-25T00:13:28.443Z,34.03
2018-11-25T00:14:16.085Z,32.95
2018-11-25T00:15:05.533Z,33.83
2018-11-25T00:15:53.059Z,35.70
2018-11-25T00:16:41.552Z,35.33
2018-11-25T00:17:29.895Z,34.03
2018-11-25T00:18:18.254Z,34.15
2018-11-25T00:19:06.332Z,35.98
2018-11-25T00:19:54.051Z,35.00
2018-11-25T00:20:41.703Z,35.25
2018-11-25T00:21:30.368Z,36.05
2018-11-25T00:22:18.326Z,34.18
2018-11-25T00:23:06.105Z,34.35
2018-11-25T00:23:54.128Z,34.18
2018-11-25T00:24:41.686Z,35.23
2018-11-25T00:25:29.742Z,38.30
2018-11-25T00:26:17.268Z,39.23
2018-11-25T00:27:05.201Z,38.15
2018-11-25T00:27:53.210Z,39.45
2018-11-25T00:28:41.533Z,38.75
2018-11-25T00:29:29.764Z,38.23
2018-11-25T00:30:17.661Z,37.73
2018-11-25T00:31:09.679Z,37.98
2018-11-25T00:31:54.437Z,38.53
2018-11-25T00:32:42.022Z,38.90
2018-11-25T00:33:29.566Z,38.85
2018-11-25T00:34:17.066Z,36.38
2018-11-25T00:35:04.554Z,37.70
2018-11-25T00:35:52.180Z,39.13
2018-11-25T00:36:39.684Z,39.70
2018-11-25T00:37:27.598Z,40.95
2018-11-25T00:38:15.226Z,37.95
2018-11-25T00:39:03.066Z,42.98
2018-11-25T00:39:51.018Z,39.55
2018-11-25T00:40:39.153Z,42.17
2018-11-25T00:41:27.317Z,39.18
2018-11-25T00:42:15.150Z,39.50
2018-11-25T00:43:03.347Z,39.58
2018-11-25T00:43:51.271Z,40.95
2018-11-25T00:44:39.345Z,39.80
2018-11-25T00:45:27.401Z,42.53
2018-11-25T00:46:15.011Z,39.33
2018-11-25T00:47:03.025Z,40.92
2018-11-25T00:47:50.997Z,42.33
2018-11-25T00:48:39.427Z,39.48
2018-11-25T00:49:27.437Z,39.70
2018-11-25T00:50:15.331Z,38.42
2018-11-25T00:51:03.090Z,38.10
2018-11-25T00:51:50.936Z,39.33
2018-11-25T00:52:38.740Z,42.33
2018-11-25T00:53:26.890Z,44.55
2018-11-25T00:54:14.534Z,43.33
2018-11-25T00:55:02.102Z,41.37
2018-11-25T00:55:49.684Z,46.10
2018-11-25T00:56:37.178Z,39.58
2018-11-25T00:57:25.228Z,41.68
2018-11-25T00:58:12.906Z,40.83
2018-11-25T00:59:01.003Z,43.20
2018-11-25T00:59:48.655Z,43.40
2018-11-25T01:00:36.179Z,47.93
2018-11-25T01:01:24.306Z,42.15
2018-11-25T01:02:11.776Z,43.98
2018-11-25T01:02:59.875Z,42.90
2018-11-25T01:03:47.370Z,42.98
2018-11-25T01:04:35.288Z,43.30
2018-11-25T01:05:22.882Z,43.40
2018-11-25T01:06:10.571Z,44.45
2018-11-25T01:06:58.805Z,41.48
2018-11-25T01:07:46.613Z,42.65
2018-11-25T01:08:34.322Z,41.60
2018-11-25T01:09:22.120Z,42.25
2018-11-25T01:10:17.184Z,43.38
2018-11-25T01:11:04.918Z,47.00
2018-11-25T01:11:52.814Z,58.42
2018-11-25T01:12:40.295Z,46.05
2018-11-25T01:13:28.633Z,48.58
2018-11-25T01:14:17.421Z,43.23
2018-11-25T01:15:05.675Z,47.50
2018-11-25T01:15:53.748Z,46.08
2018-11-25T01:16:41.549Z,49.58
2018-11-25T01:17:29.665Z,45.03
2018-11-25T01:18:17.615Z,42.25
2018-11-25T01:19:05.113Z,41.75
2018-11-25T01:19:52.734Z,43.42
2018-11-25T01:20:40.208Z,41.42
2018-11-25T01:21:28.214Z,40.38
2018-11-25T01:22:16.019Z,40.38
2018-11-25T01:23:04.028Z,41.90
2018-11-25T01:23:51.971Z,41.80
2018-11-25T01:24:39.680Z,40.78
2018-11-25T01:25:27.771Z,40.12
2018-11-25T01:26:15.686Z,41.08
2018-11-25T01:27:03.977Z,45.45
2018-11-25T01:27:51.899Z,47.38
2018-11-25T01:28:39.696Z,39.92
2018-11-25T01:29:27.794Z,41.18
2018-11-25T01:30:18.468Z,42.17
2018-11-25T01:31:06.464Z,38.83
2018-11-25T01:31:54.018Z,41.83
2018-11-25T01:32:41.575Z,40.52
2018-11-25T01:33:29.031Z,42.40
2018-11-25T01:34:16.663Z,40.75
2018-11-25T01:35:04.297Z,42.10
2018-11-25T01:35:52.514Z,39.80
2018-11-25T01:36:40.269Z,39.30
2018-11-25T01:37:28.359Z,38.58
2018-11-25T01:38:15.998Z,37.13
2018-11-25T01:39:04.561Z,37.55
2018-11-25T01:39:52.450Z,39.90
2018-11-25T01:40:40.544Z,38.20
2018-11-25T01:41:27.998Z,38.53
2018-11-25T01:42:16.010Z,38.05
2018-11-25T01:43:03.559Z,38.65
2018-11-25T01:43:51.468Z,38.13
2018-11-25T01:44:40.406Z,38.28
2018-11-25T01:45:28.385Z,37.88
2018-11-25T01:46:16.009Z,37.40
2018-11-25T01:47:03.788Z,35.58
2018-11-25T01:47:51.530Z,38.58
2018-11-25T01:48:39.292Z,37.50
2018-11-25T01:49:27.479Z,36.20
2018-11-25T01:50:16.763Z,36.85
2018-11-25T01:51:04.670Z,37.13
2018-11-25T01:51:52.143Z,39.08
2018-11-25T01:52:39.676Z,38.67
2018-11-25T01:53:27.711Z,37.45
2018-11-25T01:54:15.220Z,37.55
2018-11-25T01:55:02.738Z,35.55
2018-11-25T01:55:50.384Z,38.60
2018-11-25T01:56:38.267Z,34.98
2018-11-25T01:57:25.848Z,34.08
2018-11-25T01:58:13.499Z,34.70
2018-11-25T01:59:01.037Z,35.45
2018-11-25T01:59:48.658Z,34.55
2018-11-25T02:00:36.823Z,37.08
2018-11-25T02:01:24.571Z,34.10
2018-11-25T02:02:12.390Z,35.75
2018-11-25T02:03:00.031Z,37.30
2018-11-25T02:03:48.102Z,34.40
2018-11-25T02:04:36.632Z,34.18
2018-11-25T02:05:24.446Z,34.53
2018-11-25T02:06:12.383Z,35.10
2018-11-25T02:06:59.884Z,35.17
2018-11-25T02:07:47.327Z,35.90
2018-11-25T02:08:34.964Z,37.13
2018-11-25T02:09:22.496Z,36.58
2018-11-25T02:10:14.873Z,37.53
2018-11-25T02:11:02.738Z,35.25
2018-11-25T02:11:51.096Z,36.95
2018-11-25T02:12:39.148Z,36.60
2018-11-25T02:13:26.712Z,34.40
2018-11-25T02:14:14.308Z,38.35
2018-11-25T02:15:01.867Z,36.53
2018-11-25T02:15:49.414Z,37.08
2018-11-25T02:16:37.200Z,36.50
2018-11-25T02:17:25.234Z,36.55
2018-11-25T02:18:12.767Z,40.40
2018-11-25T02:19:00.574Z,34.60
2018-11-25T02:19:48.071Z,34.53
2018-11-25T02:20:35.640Z,38.78
2018-11-25T02:21:23.194Z,39.35
2018-11-25T02:22:11.122Z,37.05
2018-11-25T02:22:58.707Z,37.15
2018-11-25T02:23:46.406Z,37.40
2018-11-25T02:24:34.147Z,37.00
2018-11-25T02:25:22.418Z,38.78
2018-11-25T02:26:10.255Z,38.45
2018-11-25T02:26:57.807Z,36.40
2018-11-25T02:27:45.856Z,35.85
2018-11-25T02:28:33.649Z,35.98
2018-11-25T02:29:21.750Z,36.55
2018-11-25T02:30:12.112Z,36.53
2018-11-25T02:30:59.841Z,36.33
2018-11-25T02:31:47.774Z,40.15
2018-11-25T02:32:35.719Z,37.40
2018-11-25T02:33:23.271Z,35.90
2018-11-25T02:34:10.858Z,35.52
2018-11-25T02:34:58.545Z,33.98
2018-11-25T02:35:46.824Z,36.70
2018-11-25T02:36:34.552Z,34.33
2018-11-25T02:37:22.257Z,38.08
2018-11-25T02:38:09.794Z,38.42
2018-11-25T02:38:57.618Z,35.95
2018-11-25T02:39:45.170Z,37.30
2018-11-25T02:40:32.729Z,36.80
2018-11-25T02:41:20.309Z,36.85
2018-11-25T02:42:07.848Z,42.67
2018-11-25T02:42:55.435Z,37.73
2018-11-25T02:43:43.424Z,37.58
2018-11-25T02:44:30.999Z,38.35
2018-11-25T02:45:20.515Z,37.08
2018-11-25T02:46:08.277Z,37.45
2018-11-25T02:46:55.918Z,40.67
2018-11-25T02:47:44.176Z,41.70
2018-11-25T02:48:31.917Z,44.00
2018-11-25T02:49:19.642Z,39.55
2018-11-25T02:50:30.955Z,41.70
2018-11-25T02:51:20.310Z,41.30
2018-11-25T02:52:08.083Z,42.20
2018-11-25T02:52:56.928Z,40.67
2018-11-25T02:53:44.654Z,39.98
2018-11-25T02:54:32.820Z,38.25
2018-11-25T02:55:27.942Z,38.15
2018-11-25T02:56:15.801Z,38.90
2018-11-25T02:57:03.352Z,40.88
2018-11-25T02:57:51.505Z,43.73
2018-11-25T02:58:39.530Z,46.05
2018-11-25T02:59:27.323Z,38.67
2018-11-25T03:00:15.199Z,39.53
2018-11-25T03:01:08.716Z,38.90
2018-11-25T03:01:56.326Z,37.03
2018-11-25T03:02:43.978Z,42.20
2018-11-25T03:03:31.497Z,40.40
2018-11-25T03:04:18.973Z,40.95
2018-11-25T03:05:06.671Z,35.73
2018-11-25T03:05:54.747Z,39.23
2018-11-25T03:06:42.605Z,37.20
2018-11-25T03:07:30.169Z,41.50
2018-11-25T03:08:18.088Z,44.18
2018-11-25T03:09:07.639Z,44.18
2018-11-25T03:09:55.625Z,39.67
2018-11-25T03:10:43.356Z,39.08
2018-11-25T03:11:31.203Z,38.73
2018-11-25T03:12:18.824Z,37.38
2018-11-25T03:13:06.410Z,37.35
2018-11-25T03:13:54.335Z,40.05
2018-11-25T03:14:41.937Z,44.60
2018-11-25T03:15:29.534Z,40.38
2018-11-25T03:16:17.447Z,40.75
2018-11-25T03:17:04.973Z,43.68
2018-11-25T03:17:52.730Z,42.05
2018-11-25T03:18:40.742Z,39.40
2018-11-25T03:19:28.304Z,38.73
2018-11-25T03:20:16.840Z,38.70
2018-11-25T03:21:05.116Z,40.38
2018-11-25T03:21:52.922Z,38.92
2018-11-25T03:22:40.691Z,39.40
2018-11-25T03:23:28.652Z,37.10
2018-11-25T03:24:16.690Z,37.38
2018-11-25T03:25:04.266Z,37.03
2018-11-25T03:25:51.938Z,37.70
2018-11-25T03:26:39.501Z,37.45
2018-11-25T03:27:27.913Z,38.10
2018-11-25T03:28:15.455Z,36.15
2018-11-25T03:29:03.039Z,36.33
2018-11-25T03:29:50.762Z,40.73
2018-11-25T03:30:38.348Z,38.90
2018-11-25T03:31:26.511Z,38.83
2018-11-25T03:32:14.446Z,41.80
2018-11-25T03:33:02.660Z,39.85
2018-11-25T03:33:50.268Z,38.70
2018-11-25T03:34:38.117Z,45.67
2018-11-25T03:35:26.288Z,42.27
2018-11-25T03:36:13.889Z,46.85
2018-11-25T03:37:01.401Z,44.38
2018-11-25T03:37:49.231Z,42.85
2018-11-25T03:38:37.375Z,42.40
2018-11-25T03:39:24.909Z,41.73
2018-11-25T03:40:13.722Z,44.25
2018-11-25T03:41:01.734Z,45.40
2018-11-25T03:41:49.723Z,44.67
2018-11-25T03:42:37.689Z,44.83
2018-11-25T03:43:25.325Z,45.80
2018-11-25T03:44:12.733Z,40.52
2018-11-25T03:45:00.341Z,41.18
2018-11-25T03:45:47.922Z,45.35
2018-11-25T03:46:35.714Z,43.98
2018-11-25T03:47:23.889Z,40.25
2018-11-25T03:48:11.593Z,41.28
2018-11-25T03:48:59.650Z,41.28
2018-11-25T03:49:47.192Z,41.92
2018-11-25T03:50:34.755Z,45.15
2018-11-25T03:51:22.367Z,41.35
2018-11-25T03:52:09.888Z,43.58
2018-11-25T03:52:57.582Z,44.67
2018-11-25T03:53:45.110Z,43.78
2018-11-25T03:54:32.609Z,46.50
2018-11-25T03:55:20.224Z,59.42
2018-11-25T03:56:07.773Z,47.70
2018-11-25T03:56:55.252Z,53.28
2018-11-25T03:57:44.369Z,50.65
2018-11-25T03:58:31.886Z,53.78
2018-11-25T03:59:19.327Z,48.17
2018-11-25T04:00:10.576Z,55.12
2018-11-25T04:00:58.638Z,55.12
2018-11-25T04:01:46.210Z,56.40
2018-11-25T04:02:34.050Z,49.60
2018-11-25T04:03:21.573Z,45.60
2018-11-25T04:04:09.215Z,45.67
2018-11-25T04:04:56.778Z,46.10
2018-11-25T04:05:44.344Z,46.02
2018-11-25T04:06:31.879Z,53.05
2018-11-25T04:07:19.450Z,49.93
2018-11-25T04:08:07.258Z,48.45
2018-11-25T04:08:55.043Z,45.33
2018-11-25T04:09:42.796Z,56.65
2018-11-25T04:10:30.825Z,51.05
2018-11-25T04:11:18.361Z,63.15
2018-11-25T04:12:06.415Z,47.78
2018-11-25T04:12:54.339Z,48.95
2018-11-25T04:13:42.167Z,43.40
2018-11-25T04:14:30.083Z,44.80
2018-11-25T04:15:19.025Z,46.85
2018-11-25T04:16:06.819Z,47.03
2018-11-25T04:16:54.934Z,54.20
2018-11-25T04:17:43.159Z,44.33
2018-11-25T04:18:31.055Z,48.45
2018-11-25T04:19:18.599Z,46.13
2018-11-25T04:20:08.159Z,44.35
2018-11-25T04:20:55.597Z,44.98
2018-11-25T04:21:43.342Z,51.08
2018-11-25T04:22:31.374Z,45.03
2018-11-25T04:23:19.689Z,52.90
2018-11-25T04:24:07.385Z,53.33
2018-11-25T04:24:54.966Z,45.88
2018-11-25T04:25:42.722Z,45.80
2018-11-25T04:26:48.457Z,46.53
2018-11-25T04:27:36.466Z,47.30
2018-11-25T04:28:24.522Z,46.88
2018-11-25T04:29:12.036Z,43.83
2018-11-25T04:29:59.539Z,46.58
2018-11-25T04:30:47.077Z,45.03
2018-11-25T04:31:35.071Z,44.93
2018-11-25T04:32:23.195Z,45.48
2018-11-25T04:33:10.921Z,43.63
2018-11-25T04:33:58.930Z,41.58
2018-11-25T04:34:46.662Z,44.00
2018-11-25T04:35:34.509Z,42.75
2018-11-25T04:36:22.526Z,48.02
2018-11-25T04:37:10.087Z,41.68
2018-11-25T04:37:58.106Z,42.48
2018-11-25T04:38:46.121Z,42.50
2018-11-25T04:39:33.706Z,42.75
2018-11-25T04:40:21.455Z,40.35
2018-11-25T04:41:09.357Z,42.88
2018-11-25T04:41:56.961Z,42.98
2018-11-25T04:42:44.528Z,40.40
2018-11-25T04:43:32.269Z,41.42
2018-11-25T04:44:19.748Z,40.12
2018-11-25T04:45:09.721Z,41.30
2018-11-25T04:45:57.566Z,41.65
2018-11-25T04:46:45.342Z,40.88
2018-11-25T04:47:33.210Z,41.33
2018-11-25T04:48:20.950Z,41.70
2018-11-25T04:49:08.554Z,39.48
2018-11-25T04:49:56.037Z,45.73
2018-11-25T04:50:43.671Z,41.35
2018-11-25T04:51:31.812Z,41.02
2018-11-25T04:52:19.219Z,40.28
2018-11-25T04:53:07.253Z,41.05
2018-11-25T04:53:55.278Z,40.48
2018-11-25T04:54:42.970Z,41.98
2018-11-25T04:56:27.874Z,41.37
2018-11-25T04:57:16.016Z,37.53
2018-11-25T04:58:03.995Z,39.60
2018-11-25T04:58:51.539Z,44.35
2018-11-25T04:59:39.315Z,40.12
2018-11-25T05:00:27.374Z,40.12
2018-11-25T05:01:14.944Z,41.30
2018-11-25T05:02:02.422Z,38.13
2018-11-25T05:02:50.833Z,39.00
2018-11-25T05:03:38.637Z,38.98
2018-11-25T05:04:26.213Z,42.17
2018-11-25T05:05:14.831Z,41.13
2018-11-25T05:06:03.289Z,41.45
2018-11-25T05:06:51.421Z,42.50
2018-11-25T05:07:39.395Z,40.58
2018-11-25T05:08:27.042Z,38.85
2018-11-25T05:09:15.201Z,38.53
2018-11-25T05:10:02.898Z,39.75
2018-11-25T05:10:50.632Z,40.70
2018-11-25T05:11:38.246Z,40.65
2018-11-25T05:12:26.338Z,39.80
2018-11-25T05:13:14.392Z,39.63
2018-11-25T05:14:02.126Z,40.67
2018-11-25T05:14:50.061Z,38.15
2018-11-25T05:15:37.613Z,41.40
2018-11-25T05:16:25.698Z,41.40
2018-11-25T05:17:13.427Z,43.33
2018-11-25T05:18:01.900Z,42.45
2018-11-25T05:18:49.986Z,41.65
2018-11-25T05:19:37.543Z,40.80
2018-11-25T05:20:25.147Z,41.28
2018-11-25T05:21:12.749Z,41.40
2018-11-25T05:22:00.785Z,42.55
2018-11-25T05:22:48.507Z,41.30
2018-11-25T05:23:36.550Z,45.88
2018-11-25T05:24:24.501Z,45.03
2018-11-25T05:25:16.069Z,43.75
2018-11-25T05:26:04.543Z,43.73
2018-11-25T05:26:52.942Z,44.90
2018-11-25T05:27:40.573Z,45.15
2018-11-25T05:28:28.125Z,44.63
2018-11-25T05:29:16.034Z,46.25
2018-11-25T05:30:04.241Z,43.87
2018-11-25T05:30:52.598Z,41.40
2018-11-25T05:31:40.091Z,43.65
2018-11-25T05:32:27.580Z,44.15
2018-11-25T05:33:15.171Z,42.40
2018-11-25T05:34:03.212Z,44.23
2018-11-25T05:34:50.926Z,43.33
2018-11-25T05:35:38.393Z,43.70
2018-11-25T05:36:26.343Z,43.28
2018-11-25T05:37:13.843Z,44.73
2018-11-25T05:38:01.334Z,44.42
2018-11-25T05:38:48.959Z,45.03
2018-11-25T05:39:36.732Z,44.05
2018-11-25T05:40:24.457Z,44.45
2018-11-25T05:41:13.105Z,42.58
2018-11-25T05:42:00.752Z,41.20
2018-11-25T05:42:48.251Z,43.00
2018-11-25T05:43:35.790Z,42.35
2018-11-25T05:44:23.306Z,41.10
2018-11-25T05:45:18.125Z,43.83
2018-11-25T05:46:07.027Z,39.45
2018-11-25T05:46:55.010Z,39.23
2018-11-25T05:47:43.141Z,40.35
2018-11-25T05:48:31.278Z,40.67
2018-11-25T05:49:19.101Z,39.35
2018-11-25T05:50:08.373Z,40.20
2018-11-25T05:50:56.527Z,39.73
2018-11-25T05:51:44.195Z,38.75
2018-11-25T05:52:31.754Z,37.75
2018-11-25T05:53:19.162Z,43.13
2018-11-25T05:54:06.871Z,39.13
2018-11-25T05:54:54.792Z,40.45
2018-11-25T05:55:42.357Z,42.40
2018-11-25T05:56:30.343Z,40.48
2018-11-25T05:57:18.186Z,41.70
2018-11-25T05:58:06.001Z,39.40
2018-11-25T05:58:54.182Z,42.05
2018-11-25T05:59:41.838Z,41.05
2018-11-25T06:00:33.768Z,39.63
2018-11-25T06:01:21.471Z,39.03
2018-11-25T06:02:09.153Z,39.48
2018-11-25T06:02:56.748Z,40.78
2018-11-25T06:03:44.750Z,41.05
2018-11-25T06:04:32.275Z,41.68
2018-11-25T06:05:19.857Z,42.08
2018-11-25T06:06:07.382Z,41.02
2018-11-25T06:06:55.374Z,44.18
2018-11-25T06:07:43.621Z,41.05
2018-11-25T06:08:31.396Z,42.53
2018-11-25T06:09:19.618Z,41.83
2018-11-25T06:10:09.603Z,40.65
2018-11-25T06:10:57.362Z,42.83
2018-11-25T06:11:44.959Z,41.65
2018-11-25T06:12:32.481Z,41.45
2018-11-25T06:13:20.415Z,46.73
2018-11-25T06:14:08.170Z,42.60
2018-11-25T06:14:55.621Z,40.60
2018-11-25T06:15:43.384Z,42.60
2018-11-25T06:16:31.010Z,43.17
2018-11-25T06:17:18.885Z,43.02
2018-11-25T06:18:06.683Z,43.35
2018-11-25T06:18:54.085Z,43.95
2018-11-25T06:19:41.817Z,45.48
2018-11-25T06:20:29.458Z,43.73
2018-11-25T06:21:17.137Z,48.28
2018-11-25T06:22:04.974Z,43.75
2018-11-25T06:22:52.606Z,42.60
2018-11-25T06:23:40.559Z,44.77
2018-11-25T06:24:28.154Z,45.10
2018-11-25T06:25:20.084Z,45.17
2018-11-25T06:26:08.194Z,42.05
2018-11-25T06:26:55.687Z,41.88
2018-11-25T06:27:44.367Z,43.30
2018-11-25T06:28:32.615Z,44.00
2018-11-25T06:29:20.554Z,42.50
2018-11-25T06:30:21.047Z,40.83
2018-11-25T06:31:08.602Z,41.90
2018-11-25T06:31:56.247Z,41.98
2018-11-25T06:32:44.441Z,42.35
2018-11-25T06:33:32.798Z,41.45
2018-11-25T06:34:20.782Z,41.77
2018-11-25T06:35:10.132Z,41.08
2018-11-25T06:35:58.151Z,39.83
2018-11-25T06:36:45.999Z,38.23
2018-11-25T06:37:33.488Z,40.17
2018-11-25T06:38:21.582Z,40.40
2018-11-25T06:39:09.779Z,37.88
2018-11-25T06:39:57.774Z,39.73
2018-11-25T06:40:45.798Z,40.78
2018-11-25T06:41:34.286Z,40.98
2018-11-25T06:42:22.258Z,40.33
2018-11-25T06:43:10.147Z,38.88
2018-11-25T06:43:58.006Z,39.25
2018-11-25T06:44:45.720Z,38.28
2018-11-25T06:45:33.503Z,38.10
2018-11-25T06:46:21.307Z,38.08
2018-11-25T06:47:09.013Z,37.48
2018-11-25T06:47:57.338Z,40.55
2018-11-25T06:48:45.254Z,39.80
2018-11-25T06:49:33.240Z,40.28
2018-11-25T06:50:21.211Z,39.88
2018-11-25T06:51:09.287Z,38.83
2018-11-25T06:51:56.877Z,38.58
2018-11-25T06:52:44.318Z,39.58
2018-11-25T06:53:32.239Z,40.67
2018-11-25T06:54:20.605Z,39.38
2018-11-25T06:55:10.197Z,37.65
2018-11-25T06:55:57.997Z,38.75
2018-11-25T06:56:46.010Z,39.67
2018-11-25T06:57:33.506Z,39.20
2018-11-25T06:58:21.278Z,38.92
2018-11-25T06:59:08.737Z,43.10
2018-11-25T06:59:56.706Z,40.85
2018-11-25T07:00:44.290Z,41.40
2018-11-25T07:01:32.225Z,40.40
2018-11-25T07:02:19.772Z,38.33
2018-11-25T07:03:07.497Z,42.27
2018-11-25T07:03:55.277Z,40.35
2018-11-25T07:04:42.807Z,38.73
2018-11-25T07:05:30.218Z,41.25
2018-11-25T07:06:17.751Z,38.98
2018-11-25T07:07:05.687Z,38.48
2018-11-25T07:07:53.603Z,38.33
2018-11-25T07:08:41.267Z,39.15
2018-11-25T07:09:28.964Z,39.08
2018-11-25T07:10:23.164Z,37.55
2018-11-25T07:11:11.207Z,39.00
2018-11-25T07:11:58.712Z,37.98
2018-11-25T07:12:46.983Z,36.55
2018-11-25T07:13:34.666Z,37.33
2018-11-25T07:14:22.231Z,38.13
2018-11-25T07:15:14.228Z,36.75
2018-11-25T07:16:02.271Z,37.13
2018-11-25T07:16:50.562Z,39.92
2018-11-25T07:17:38.209Z,38.75
2018-11-25T07:18:25.723Z,38.92
2018-11-25T07:19:13.823Z,37.50
2018-11-25T07:20:01.871Z,38.85
2018-11-25T07:20:49.348Z,37.50
2018-11-25T07:21:37.115Z,35.65
2018-11-25T07:22:24.609Z,36.15
2018-11-25T07:23:12.090Z,38.10
2018-11-25T07:24:00.063Z,36.88
2018-11-25T07:24:47.778Z,38.75
2018-11-25T07:25:35.537Z,37.13
2018-11-25T07:26:23.839Z,38.65
2018-11-25T07:27:11.409Z,35.98
2018-11-25T07:27:59.148Z,38.17
2018-11-25T07:28:46.977Z,37.88
2018-11-25T07:29:34.470Z,36.30
2018-11-25T07:30:26.156Z,40.73
2018-11-25T07:31:14.186Z,37.28
2018-11-25T07:32:01.781Z,36.73
2018-11-25T07:32:49.426Z,37.48
2018-11-25T07:33:36.975Z,39.90
2018-11-25T07:34:24.557Z,38.10
2018-11-25T07:35:12.745Z,39.63
2018-11-25T07:36:00.459Z,38.90
2018-11-25T07:36:48.372Z,36.45
2018-11-25T07:37:36.549Z,36.73
2018-11-25T07:38:24.529Z,36.15
2018-11-25T07:39:12.192Z,35.88
2018-11-25T07:39:59.926Z,37.00
2018-11-25T07:40:47.430Z,36.98
2018-11-25T07:41:34.959Z,37.03
2018-11-25T07:42:22.916Z,35.80
2018-11-25T07:43:10.682Z,36.75
2018-11-25T07:43:58.649Z,36.40
2018-11-25T07:44:46.086Z,36.10
2018-11-25T07:45:33.654Z,36.00
2018-11-25T07:46:21.631Z,34.25
2018-11-25T07:47:09.622Z,36.98
2018-11-25T07:47:57.054Z,33.65
2018-11-25T07:48:44.679Z,35.10
2018-11-25T07:49:36.790Z,35.33
2018-11-25T07:50:24.668Z,34.88
2018-11-25T07:51:12.206Z,36.13
2018-11-25T07:52:00.330Z,35.30
2018-11-25T07:52:48.970Z,34.25
2018-11-25T07:53:41.518Z,35.08
2018-11-25T07:54:29.655Z,34.98
2018-11-25T07:55:19.704Z,34.18
2018-11-25T07:56:07.482Z,36.23
2018-11-25T07:56:55.268Z,37.58
2018-11-25T07:57:48.266Z,36.00
2018-11-25T07:58:36.865Z,34.65
2018-11-25T07:59:24.446Z,34.92
2018-11-25T08:00:19.091Z,34.73
2018-11-25T08:01:07.156Z,34.33
2018-11-25T08:01:55.823Z,37.25
2018-11-25T08:02:43.397Z,37.00
2018-11-25T08:03:30.943Z,36.80
2018-11-25T08:04:18.629Z,36.40
2018-11-25T08:05:08.118Z,36.08
2018-11-25T08:05:55.769Z,36.60
2018-11-25T08:06:44.115Z,34.67
2018-11-25T08:07:32.703Z,35.52
2018-11-25T08:08:20.597Z,37.50
2018-11-25T08:09:09.049Z,35.00
2018-11-25T08:09:56.902Z,34.30
2018-11-25T08:10:47.862Z,36.33
2018-11-25T08:11:35.407Z,36.28
2018-11-25T08:12:23.430Z,34.73
2018-11-25T08:13:11.297Z,35.65
2018-11-25T08:13:59.017Z,35.83
2018-11-25T08:14:46.967Z,35.70
2018-11-25T08:15:34.845Z,38.00
2018-11-25T08:16:22.634Z,35.70
2018-11-25T08:17:10.371Z,36.70
2018-11-25T08:17:57.965Z,34.90
2018-11-25T08:18:45.770Z,34.90
2018-11-25T08:19:33.329Z,37.30
2018-11-25T08:20:22.348Z,35.15
2018-11-25T08:21:10.070Z,34.15
2018-11-25T08:21:57.570Z,36.77
2018-11-25T08:22:45.198Z,33.78
2018-11-25T08:23:32.689Z,35.95
2018-11-25T08:24:20.426Z,33.73
2018-11-25T08:25:11.875Z,36.08
2018-11-25T08:26:00.078Z,33.15
2018-11-25T08:26:47.872Z,34.67
2018-11-25T08:27:36.018Z,32.73
2018-11-25T08:28:23.833Z,33.67
2018-11-25T08:29:11.746Z,32.83
2018-11-25T08:29:59.302Z,34.55
2018-11-25T08:30:46.811Z,32.10
2018-11-25T08:31:34.300Z,34.40
2018-11-25T08:32:21.878Z,33.67
2018-11-25T08:33:09.866Z,32.63
2018-11-25T08:33:57.723Z,32.13
2018-11-25T08:34:45.249Z,33.33
2018-11-25T08:35:33.246Z,30.35
2018-11-25T08:36:20.805Z,32.75
2018-11-25T08:37:08.469Z,32.13
2018-11-25T08:37:56.044Z,32.78
2018-11-25T08:38:43.627Z,32.90
2018-11-25T08:39:31.408Z,33.40
2018-11-25T08:40:25.690Z,32.17
2018-11-25T08:41:13.226Z,31.90
2018-11-25T08:42:00.729Z,31.85
2018-11-25T08:42:48.644Z,31.55
2018-11-25T08:43:36.601Z,33.75
2018-11-25T08:44:24.231Z,31.55
2018-11-25T08:45:12.729Z,32.08
2018-11-25T08:46:00.459Z,32.05
2018-11-25T08:46:48.458Z,30.62
2018-11-25T08:47:36.413Z,32.65
2018-11-25T08:48:24.649Z,32.73
2018-11-25T08:49:12.646Z,31.77
2018-11-25T08:50:00.373Z,30.57
2018-11-25T08:50:47.879Z,31.35
2018-11-25T08:51:35.708Z,30.15
2018-11-25T08:52:23.758Z,30.90
2018-11-25T08:53:11.480Z,31.95
2018-11-25T08:53:59.122Z,32.05
2018-11-25T08:54:46.687Z,32.90
2018-11-25T08:55:34.242Z,32.50
2018-11-25T08:56:22.243Z,32.73
2018-11-25T08:57:09.886Z,31.37
2018-11-25T08:57:57.578Z,32.28
2018-11-25T08:58:46.686Z,30.85
2018-11-25T08:59:34.882Z,34.27
2018-11-25T09:00:24.243Z,31.73
2018-11-25T09:01:11.895Z,30.72
2018-11-25T09:01:59.577Z,32.83
2018-11-25T09:02:47.348Z,31.85
2018-11-25T09:03:35.390Z,32.40
2018-11-25T09:04:23.199Z,31.80
2018-11-25T09:05:11.883Z,31.42
2018-11-25T09:06:00.958Z,31.73
2018-11-25T09:06:48.306Z,31.68
2018-11-25T09:07:35.823Z,30.52
2018-11-25T09:08:23.795Z,31.00
2018-11-25T09:09:11.365Z,30.35
2018-11-25T09:09:59.450Z,33.23
2018-11-25T09:10:47.337Z,31.52
2018-11-25T09:11:35.049Z,30.68
2018-11-25T09:12:23.306Z,30.65
2018-11-25T09:13:10.830Z,32.53
2018-11-25T09:13:58.367Z,32.85
2018-11-25T09:14:46.222Z,31.60
2018-11-25T09:15:34.087Z,32.45
2018-11-25T09:16:21.882Z,32.80
2018-11-25T09:17:09.887Z,30.82
2018-11-25T09:17:57.819Z,32.73
2018-11-25T09:18:45.986Z,32.25
2018-11-25T09:19:33.996Z,32.05
2018-11-25T09:20:24.634Z,31.68
2018-11-25T09:21:12.295Z,31.35
2018-11-25T09:22:00.067Z,30.65
2018-11-25T09:22:47.773Z,32.50
2018-11-25T09:23:35.513Z,32.53
2018-11-25T09:24:23.300Z,31.52
2018-11-25T09:25:33.274Z,31.95
2018-11-25T09:26:22.075Z,30.48
2018-11-25T09:27:10.219Z,30.37
2018-11-25T09:27:59.225Z,32.40
2018-11-25T09:28:47.050Z,31.42
2018-11-25T09:29:35.234Z,31.35
2018-11-25T09:30:24.007Z,30.65
2018-11-25T09:31:12.033Z,30.75
2018-11-25T09:31:59.730Z,29.05
2018-11-25T09:32:47.320Z,30.90
2018-11-25T09:33:35.205Z,29.02
2018-11-25T09:34:23.154Z,30.05
2018-11-25T09:35:10.777Z,30.88
2018-11-25T09:35:58.735Z,31.17
2018-11-25T09:36:46.508Z,31.00
2018-11-25T09:37:34.049Z,30.97
2018-11-25T09:38:21.728Z,31.73
2018-11-25T09:39:10.163Z,32.53
2018-11-25T09:39:58.107Z,29.63
2018-11-25T09:40:45.891Z,30.65
2018-11-25T09:41:33.767Z,32.58
2018-11-25T09:42:22.548Z,30.35
2018-11-25T09:43:10.444Z,30.40
2018-11-25T09:43:58.508Z,31.52
2018-11-25T09:44:45.969Z,30.37
2018-11-25T09:45:33.618Z,29.25
2018-11-25T09:46:21.192Z,29.35
2018-11-25T09:47:08.761Z,28.83
2018-11-25T09:47:56.405Z,28.85
2018-11-25T09:48:43.968Z,29.80
2018-11-25T09:49:33.179Z,29.07
2018-11-25T09:50:24.678Z,30.23
2018-11-25T09:51:12.735Z,29.23
2018-11-25T09:52:00.448Z,29.45
2018-11-25T09:52:48.554Z,27.65
2018-11-25T09:53:36.125Z,28.70
2018-11-25T09:54:23.815Z,28.98
2018-11-25T09:55:18.275Z,27.75
2018-11-25T09:56:06.821Z,29.27
2018-11-25T09:56:54.749Z,28.92
2018-11-25T09:57:43.488Z,27.90
2018-11-25T09:58:31.609Z,29.15
2018-11-25T09:59:19.125Z,29.18
2018-11-25T10:00:29.890Z,27.58
2018-11-25T10:01:18.021Z,26.60
2018-11-25T10:02:06.658Z,27.22
2018-11-25T10:02:54.595Z,27.13
2018-11-25T10:03:42.602Z,26.48
2018-11-25T10:04:30.146Z,27.65
2018-11-25T10:05:17.892Z,27.82
2018-11-25T10:06:06.395Z,27.30
2018-11-25T10:06:54.061Z,25.50
2018-11-25T10:07:42.061Z,26.17
2018-11-25T10:08:30.157Z,26.70
2018-11-25T10:09:19.175Z,26.82
2018-11-25T10:10:12.417Z,26.65
2018-11-25T10:11:00.329Z,25.72
2018-11-25T10:11:48.060Z,26.97
2018-11-25T10:12:35.743Z,26.52
2018-11-25T10:13:23.287Z,26.75
2018-11-25T10:14:11.078Z,27.05
2018-11-25T10:14:59.026Z,27.27
2018-11-25T10:15:46.630Z,27.35
2018-11-25T10:16:34.278Z,26.97
2018-11-25T10:17:23.039Z,27.37
2018-11-25T10:18:11.011Z,26.70
2018-11-25T10:18:58.489Z,28.50
2018-11-25T10:19:46.138Z,27.02
2018-11-25T10:20:34.174Z,27.17
2018-11-25T10:21:22.359Z,27.10